createdAt,value
2022-08-16T00:00:48.261Z,24.10
2022-08-16T00:03:25.526Z,24.10
2022-08-16T00:06:05.557Z,24.10
2022-08-16T00:08:47.567Z,24.10
2022-08-16T00:11:16.555Z,24.00
2022-08-16T00:13:53.744Z,24.00
2022-08-16T00:17:01.221Z,24.00
2022-08-16T00:19:22.523Z,24.00
2022-08-16T00:22:01.698Z,24.00
2022-08-16T00:24:36.561Z,23.90
2022-08-16T00:27:11.583Z,24.00
2022-08-16T00:29:39.131Z,24.00
2022-08-16T00:32:18.039Z,24.00
2022-08-16T00:34:52.583Z,24.00
2022-08-16T00:37:56.630Z,23.90
2022-08-16T00:40:33.397Z,23.90
2022-08-16T00:43:11.994Z,23.90
2022-08-16T00:46:00.061Z,23.90
2022-08-16T00:48:44.245Z,23.90
2022-08-16T00:51:20.566Z,23.90
2022-08-16T00:53:48.867Z,24.00
2022-08-16T00:56:58.647Z,24.00
2022-08-16T00:59:15.221Z,24.00
2022-08-16T01:01:49.566Z,24.00
2022-08-16T01:04:39.599Z,24.00
2022-08-16T01:07:08.232Z,24.00
2022-08-16T01:09:44.566Z,24.00
2022-08-16T01:12:26.215Z,24.00
2022-08-16T01:14:57.552Z,23.90
2022-08-16T01:17:36.577Z,23.90
2022-08-16T01:20:24.353Z,23.90
2022-08-16T01:23:04.596Z,23.90
2022-08-16T01:25:45.612Z,23.80
2022-08-16T01:28:36.965Z,23.80
2022-08-16T01:31:08.406Z,23.80
2022-08-16T01:33:44.441Z,23.80
2022-08-16T01:36:18.575Z,23.80
2022-08-16T01:38:57.080Z,23.80
2022-08-16T01:41:26.155Z,23.70
2022-08-16T01:44:03.632Z,23.70
2022-08-16T01:46:39.327Z,23.70
2022-08-16T01:49:16.625Z,23.70
2022-08-16T01:51:46.733Z,23.70
2022-08-16T01:54:30.895Z,23.70
2022-08-16T01:56:58.660Z,23.60
2022-08-16T01:59:32.626Z,23.60
2022-08-16T02:02:01.105Z,23.60
2022-08-16T02:04:48.636Z,23.60
2022-08-16T02:07:23.998Z,23.60
2022-08-16T02:09:59.663Z,23.60
2022-08-16T02:12:49.640Z,23.60
2022-08-16T02:15:27.620Z,23.60
2022-08-16T02:18:02.631Z,23.60
2022-08-16T02:20:45.555Z,23.60
2022-08-16T02:23:12.831Z,23.50
2022-08-16T02:25:52.874Z,23.50
2022-08-16T02:28:23.322Z,23.50
2022-08-16T02:30:58.630Z,23.50
2022-08-16T02:33:44.036Z,23.60
2022-08-16T02:36:47.177Z,23.60
2022-08-16T02:39:14.842Z,23.60
2022-08-16T02:41:43.715Z,23.60
2022-08-16T02:44:18.625Z,23.60
2022-08-16T02:46:49.702Z,23.60
2022-08-16T02:49:58.305Z,23.60
2022-08-16T02:52:24.702Z,23.60
2022-08-16T02:54:56.361Z,23.60
2022-08-16T02:57:29.610Z,23.60
2022-08-16T03:00:04.985Z,23.60
2022-08-16T03:02:56.167Z,23.60
2022-08-16T03:05:43.656Z,23.60
2022-08-16T03:08:50.168Z,23.60
2022-08-16T03:11:16.209Z,23.60
2022-08-16T03:13:51.653Z,23.60
2022-08-16T03:16:36.648Z,23.60
2022-08-16T03:19:07.441Z,23.60
2022-08-16T03:21:41.642Z,23.60
2022-08-16T03:24:29.146Z,23.60
2022-08-16T03:27:02.917Z,23.60
2022-08-16T03:29:38.617Z,23.70
2022-08-16T03:32:10.210Z,23.70
2022-08-16T03:34:49.992Z,23.70
2022-08-16T03:37:17.351Z,23.70
2022-08-16T03:39:44.376Z,23.60
2022-08-16T03:42:20.396Z,23.60
2022-08-16T03:45:03.056Z,23.60
2022-08-16T03:47:34.298Z,23.60
2022-08-16T03:50:25.798Z,23.60
2022-08-16T03:52:59.664Z,23.60
2022-08-16T03:55:45.448Z,23.50
2022-08-16T03:58:12.956Z,23.40
2022-08-16T04:00:46.719Z,23.40
2022-08-16T04:03:24.776Z,23.40
2022-08-16T04:06:05.631Z,23.40
2022-08-16T04:08:32.612Z,23.40
2022-08-16T04:11:08.660Z,23.30
2022-08-16T04:14:01.657Z,23.20
2022-08-16T04:16:29.726Z,23.20
2022-08-16T04:19:02.309Z,23.10
2022-08-16T04:21:47.362Z,23.10
2022-08-16T04:24:15.675Z,23.00
2022-08-16T04:26:49.634Z,23.00
2022-08-16T04:29:23.695Z,22.90
2022-08-16T04:31:59.646Z,22.90
2022-08-16T04:34:37.643Z,22.90
2022-08-16T04:37:04.786Z,22.90
2022-08-16T04:39:46.927Z,22.90
2022-08-16T04:42:16.013Z,22.90
2022-08-16T04:44:53.816Z,22.90
2022-08-16T04:47:24.614Z,22.90
2022-08-16T04:49:58.660Z,22.90
2022-08-16T04:52:32.784Z,22.90
2022-08-16T04:55:31.714Z,23.00
2022-08-16T04:58:04.096Z,23.00
2022-08-16T05:00:57.663Z,23.00
2022-08-16T05:03:24.616Z,23.10
2022-08-16T05:06:07.147Z,23.10
2022-08-16T05:08:49.631Z,23.10
2022-08-16T05:11:31.973Z,23.20
2022-08-16T05:14:06.908Z,23.20
2022-08-16T05:16:40.629Z,23.20
2022-08-16T05:19:11.763Z,23.20
2022-08-16T05:21:46.656Z,23.20
2022-08-16T05:24:13.606Z,23.20
2022-08-16T05:26:51.304Z,23.30
2022-08-16T05:29:59.435Z,23.30
2022-08-16T05:32:32.900Z,23.30
2022-08-16T05:35:05.661Z,23.30
2022-08-16T05:37:41.688Z,23.30
2022-08-16T05:40:09.730Z,23.30
2022-08-16T05:42:49.210Z,23.30
2022-08-16T05:45:23.250Z,23.30
2022-08-16T05:48:00.150Z,23.40
2022-08-16T05:50:34.820Z,23.40
2022-08-16T05:53:02.041Z,23.40
2022-08-16T05:55:40.735Z,23.40
2022-08-16T05:58:07.984Z,23.40
2022-08-16T06:00:42.672Z,23.40
2022-08-16T06:03:13.179Z,23.50
2022-08-16T06:05:46.719Z,23.50
2022-08-16T06:08:32.501Z,23.50
2022-08-16T06:11:15.760Z,23.50
2022-08-16T06:13:43.554Z,23.50
2022-08-16T06:16:17.990Z,23.60
2022-08-16T06:18:45.594Z,23.60
2022-08-16T06:21:22.738Z,23.70
2022-08-16T06:23:54.309Z,23.70
2022-08-16T06:26:34.785Z,23.70
2022-08-16T06:29:04.064Z,23.70
2022-08-16T06:31:46.847Z,23.70
2022-08-16T06:34:56.208Z,23.70
2022-08-16T06:37:10.715Z,23.80
2022-08-16T06:39:49.327Z,23.80
2022-08-16T06:42:23.640Z,23.80
2022-08-16T06:44:50.962Z,23.90
2022-08-16T06:47:24.678Z,23.90
2022-08-16T06:50:21.963Z,24.00
2022-08-16T06:52:57.874Z,24.00
2022-08-16T06:55:42.666Z,24.10
2022-08-16T06:58:21.898Z,24.10
2022-08-16T07:00:59.860Z,24.10
2022-08-16T07:03:32.406Z,24.20
2022-08-16T07:06:12.716Z,24.20
2022-08-16T07:08:47.811Z,24.20
2022-08-16T07:11:45.526Z,24.20
2022-08-16T07:14:24.120Z,24.20
2022-08-16T07:17:00.696Z,24.20
2022-08-16T07:20:01.748Z,24.20
2022-08-16T07:22:37.083Z,24.20
2022-08-16T07:25:11.783Z,24.30
2022-08-16T07:27:46.993Z,24.30
2022-08-16T07:30:39.877Z,24.30
2022-08-16T07:33:08.724Z,24.20
2022-08-16T07:35:44.364Z,24.20
2022-08-16T07:38:33.888Z,24.20
2022-08-16T07:41:02.081Z,24.20
2022-08-16T07:43:43.697Z,24.20
2022-08-16T07:46:38.972Z,24.20
2022-08-16T07:49:11.462Z,24.30
2022-08-16T07:51:45.705Z,24.40
2022-08-16T07:54:20.565Z,24.40
2022-08-16T07:56:54.722Z,24.50
2022-08-16T07:59:46.165Z,24.60
2022-08-16T08:02:21.195Z,24.70
2022-08-16T08:04:54.719Z,24.70
2022-08-16T08:07:29.579Z,24.80
2022-08-16T08:10:11.041Z,24.90
2022-08-16T08:12:38.660Z,25.00
2022-08-16T08:15:13.740Z,25.00
2022-08-16T08:17:43.786Z,25.00
2022-08-16T08:20:26.341Z,25.10
2022-08-16T08:23:03.734Z,25.10
2022-08-16T08:25:53.707Z,25.20
2022-08-16T08:28:26.297Z,25.20
2022-08-16T08:31:02.927Z,25.20
2022-08-16T08:33:31.683Z,25.20
2022-08-16T08:36:08.745Z,25.30
2022-08-16T08:38:46.039Z,25.30
2022-08-16T08:41:28.279Z,25.30
2022-08-16T08:44:28.815Z,25.30
2022-08-16T08:47:00.118Z,25.40
2022-08-16T08:49:46.422Z,25.40
2022-08-16T08:52:34.965Z,25.50
2022-08-16T08:55:12.994Z,25.60
2022-08-16T08:57:43.994Z,25.60
2022-08-16T09:00:21.283Z,25.70
2022-08-16T09:02:51.833Z,25.70
2022-08-16T09:05:35.721Z,25.70
2022-08-16T09:08:10.884Z,25.80
2022-08-16T09:10:46.756Z,25.80
2022-08-16T09:13:35.751Z,25.90
2022-08-16T09:16:10.302Z,26.00
2022-08-16T09:18:37.457Z,26.10
2022-08-16T09:21:13.731Z,26.20
2022-08-16T09:23:43.681Z,26.40
2022-08-16T09:26:45.376Z,26.50
2022-08-16T09:29:15.408Z,26.60
2022-08-16T09:31:53.323Z,26.80
2022-08-16T09:34:27.766Z,26.90
2022-08-16T09:36:58.181Z,27.10
2022-08-16T09:39:40.961Z,27.20
2022-08-16T09:42:10.534Z,27.30
2022-08-16T09:45:10.995Z,27.50
2022-08-16T09:47:56.575Z,27.70
2022-08-16T09:50:24.736Z,28.00
2022-08-16T09:52:52.149Z,28.20
2022-08-16T09:55:25.813Z,28.50
2022-08-16T09:57:58.301Z,28.70
2022-08-16T10:00:44.299Z,28.80
2022-08-16T10:03:12.141Z,29.00
2022-08-16T10:05:45.778Z,29.20
2022-08-16T10:08:25.707Z,29.40
2022-08-16T10:11:23.999Z,29.50
2022-08-16T10:13:51.941Z,29.70
2022-08-16T10:16:26.743Z,29.80
2022-08-16T10:19:06.197Z,29.80
2022-08-16T10:21:40.756Z,30.00
2022-08-16T10:24:08.345Z,30.20
2022-08-16T10:27:19.335Z,30.40
2022-08-16T10:29:59.428Z,30.50
2022-08-16T10:32:20.949Z,30.50
2022-08-16T10:34:54.806Z,30.60
2022-08-16T10:37:32.604Z,30.80
2022-08-16T10:40:28.693Z,30.90
2022-08-16T10:43:00.271Z,31.00
2022-08-16T10:45:37.482Z,31.20
2022-08-16T10:48:24.056Z,31.30
2022-08-16T10:51:05.387Z,31.50
2022-08-16T10:53:39.762Z,31.60
2022-08-16T10:56:51.381Z,31.70
2022-08-16T11:07:43.316Z,32.20
2022-08-16T11:10:20.723Z,32.20
2022-08-16T11:12:54.905Z,32.30
2022-08-16T11:15:22.374Z,32.50
2022-08-16T11:20:49.538Z,32.70
2022-08-16T11:23:24.812Z,32.70
2022-08-16T11:26:23.586Z,32.70
2022-08-16T11:31:32.901Z,32.70
2022-08-16T11:34:06.777Z,32.70
2022-08-16T11:36:35.203Z,32.70
2022-08-16T11:39:11.740Z,32.90
2022-08-16T11:41:45.805Z,33.00
2022-08-16T11:44:20.237Z,33.10
2022-08-16T11:46:53.820Z,33.20
2022-08-16T11:49:20.743Z,33.30
2022-08-16T11:51:49.912Z,33.40
2022-08-16T11:54:33.291Z,33.40
2022-08-16T11:57:10.794Z,33.50
2022-08-16T11:59:39.921Z,33.50
2022-08-16T12:02:32.535Z,33.60
2022-08-16T12:05:01.803Z,33.60
2022-08-16T12:07:49.787Z,33.70
2022-08-16T12:10:18.321Z,33.60
2022-08-16T12:12:46.713Z,33.60
2022-08-16T12:15:21.815Z,33.60
2022-08-16T12:17:49.558Z,33.70
2022-08-16T12:20:19.302Z,33.80
2022-08-16T12:22:53.821Z,33.80
2022-08-16T12:25:21.728Z,33.80
2022-08-16T12:27:55.821Z,33.80
2022-08-16T12:30:31.246Z,33.80
2022-08-16T12:33:08.777Z,33.80
2022-08-16T12:35:42.806Z,33.90
2022-08-16T12:38:40.940Z,34.00
2022-08-16T12:41:10.869Z,34.00
2022-08-16T12:43:42.290Z,34.10
2022-08-16T12:46:19.821Z,34.20
2022-08-16T12:49:05.872Z,34.10
2022-08-16T12:51:58.208Z,34.10
2022-08-16T12:54:27.062Z,34.10
2022-08-16T12:57:00.807Z,34.20
2022-08-16T12:59:31.162Z,34.10
2022-08-16T13:02:07.841Z,34.10
2022-08-16T13:05:08.124Z,34.10
2022-08-16T13:07:42.468Z,34.10
2022-08-16T13:10:37.955Z,34.10
2022-08-16T13:13:13.822Z,34.20
2022-08-16T13:15:56.800Z,34.20
2022-08-16T13:18:35.994Z,34.30
2022-08-16T13:21:04.446Z,34.20
2022-08-16T13:23:31.553Z,34.10
2022-08-16T13:26:05.824Z,34.10
2022-08-16T13:28:41.964Z,34.00
2022-08-16T13:31:16.142Z,34.00
2022-08-16T13:33:50.836Z,34.00
2022-08-16T13:36:38.770Z,34.10
2022-08-16T13:39:16.812Z,34.10
2022-08-16T13:41:44.065Z,34.10
2022-08-16T13:44:48.735Z,34.20
2022-08-16T13:47:14.776Z,34.20
2022-08-16T13:49:47.815Z,34.10
2022-08-16T13:52:21.800Z,34.10
2022-08-16T13:54:52.021Z,34.10
2022-08-16T13:57:19.665Z,34.00
2022-08-16T13:59:53.845Z,34.00
2022-08-16T14:02:24.983Z,33.80
2022-08-16T14:05:02.850Z,33.80
2022-08-16T14:07:40.595Z,33.70
2022-08-16T14:10:21.216Z,33.80
2022-08-16T14:12:48.610Z,33.80
2022-08-16T14:15:19.005Z,33.80
2022-08-16T14:18:23.317Z,33.70
2022-08-16T14:20:39.735Z,33.70
2022-08-16T14:23:23.731Z,33.70
2022-08-16T14:25:53.796Z,33.60
2022-08-16T14:28:27.831Z,33.60
2022-08-16T14:30:54.793Z,33.60
2022-08-16T14:33:21.750Z,33.50
2022-08-16T14:35:56.811Z,33.50
2022-08-16T14:38:24.571Z,33.50
2022-08-16T14:41:03.849Z,33.50
2022-08-16T14:43:40.834Z,33.40
2022-08-16T14:46:13.831Z,33.40
2022-08-16T14:48:42.520Z,33.30
2022-08-16T14:51:15.855Z,33.30
2022-08-16T14:53:45.519Z,33.30
2022-08-16T14:56:42.481Z,33.20
2022-08-16T14:59:17.840Z,33.10
2022-08-16T15:01:58.604Z,33.00
2022-08-16T15:04:39.533Z,33.00
2022-08-16T15:07:15.839Z,32.90
2022-08-16T15:10:00.067Z,32.80
2022-08-16T15:12:36.442Z,32.70
2022-08-16T15:15:16.290Z,32.50
2022-08-16T15:17:54.560Z,32.40
2022-08-16T15:20:29.523Z,32.20
2022-08-16T15:23:04.840Z,32.10
2022-08-16T15:25:33.902Z,32.00
2022-08-16T15:28:23.495Z,31.90
2022-08-16T15:31:03.729Z,31.80
2022-08-16T15:33:33.357Z,31.70
2022-08-16T15:36:07.784Z,31.60
2022-08-16T15:39:01.961Z,31.50
2022-08-16T15:41:42.555Z,31.40
2022-08-16T15:44:22.542Z,31.30
2022-08-16T15:46:57.207Z,31.30
2022-08-16T15:49:41.447Z,31.20
2022-08-16T15:52:29.600Z,31.20
2022-08-16T15:55:12.892Z,31.20
2022-08-16T15:57:51.296Z,31.10
2022-08-16T16:00:27.077Z,31.00
2022-08-16T16:03:20.535Z,31.00
2022-08-16T16:05:56.874Z,30.90
2022-08-16T16:08:38.958Z,30.80
2022-08-16T16:11:08.670Z,30.70
2022-08-16T16:13:42.903Z,30.60
2022-08-16T16:16:16.586Z,30.60
2022-08-16T16:18:53.884Z,30.50
2022-08-16T16:21:27.855Z,30.40
2022-08-16T16:24:21.655Z,30.30
2022-08-16T16:26:55.918Z,30.30
2022-08-16T16:29:29.890Z,30.20
2022-08-16T16:32:06.790Z,30.10
2022-08-16T16:34:41.910Z,30.10
2022-08-16T16:37:09.437Z,30.00
2022-08-16T16:39:43.939Z,30.00
2022-08-16T16:42:29.591Z,29.90
2022-08-16T16:45:05.870Z,29.90
2022-08-16T16:47:40.891Z,29.80
2022-08-16T16:50:16.874Z,29.70
2022-08-16T16:52:51.855Z,29.70
2022-08-16T16:55:26.918Z,29.60
2022-08-16T16:58:17.698Z,29.60
2022-08-16T17:00:56.429Z,29.50
2022-08-16T17:03:26.478Z,29.50
2022-08-16T17:06:08.756Z,29.40
2022-08-16T17:08:44.830Z,29.40
2022-08-16T17:11:22.875Z,29.40
2022-08-16T17:13:50.026Z,29.40
2022-08-16T17:16:19.135Z,29.30
2022-08-16T17:19:17.174Z,29.30
2022-08-16T17:21:41.939Z,29.30
2022-08-16T17:24:18.406Z,29.20
2022-08-16T17:26:49.083Z,29.20
2022-08-16T17:29:23.901Z,29.10
2022-08-16T17:34:52.925Z,28.90
2022-08-16T17:37:42.357Z,28.80
2022-08-16T17:39:27.057Z,29.00
2022-08-16T17:40:25.574Z,28.70
2022-08-16T17:43:07.896Z,28.60
2022-08-16T17:45:34.810Z,28.50
2022-08-16T17:48:07.933Z,28.40
2022-08-16T17:50:35.180Z,28.30
2022-08-16T17:53:09.901Z,28.10
2022-08-16T17:55:38.057Z,28.00
2022-08-16T17:58:23.696Z,28.00
2022-08-16T18:00:59.932Z,27.90
2022-08-16T18:04:02.923Z,27.80
2022-08-16T18:06:24.916Z,27.80
2022-08-16T18:09:03.562Z,27.70
2022-08-16T18:11:43.001Z,27.60
2022-08-16T18:14:12.960Z,27.60
2022-08-16T18:16:47.983Z,27.50
2022-08-16T18:19:15.731Z,27.50
2022-08-16T18:22:09.032Z,27.40
2022-08-16T18:24:36.035Z,27.40
2022-08-16T18:27:24.960Z,27.30
2022-08-16T18:29:57.977Z,27.30
2022-08-16T18:32:32.036Z,27.20
2022-08-16T18:34:59.052Z,27.20
2022-08-16T18:37:33.735Z,27.10
2022-08-16T18:40:00.936Z,27.00
2022-08-16T18:42:33.975Z,27.00
2022-08-16T18:45:02.753Z,26.90
2022-08-16T18:47:30.091Z,26.80
2022-08-16T18:50:03.981Z,26.80
2022-08-16T18:52:38.055Z,26.70
2022-08-16T18:55:14.602Z,26.70
2022-08-16T18:57:56.941Z,26.60
2022-08-16T19:00:26.402Z,26.60
2022-08-16T19:03:08.011Z,26.50
2022-08-16T19:05:46.032Z,26.50
2022-08-16T19:08:33.012Z,26.50
2022-08-16T19:11:00.111Z,26.40
2022-08-16T19:13:28.908Z,26.30
2022-08-16T19:16:05.062Z,26.20
2022-08-16T19:18:36.520Z,26.10
2022-08-16T19:21:11.071Z,26.00
2022-08-16T19:23:42.393Z,26.00
2022-08-16T19:26:24.886Z,25.90
2022-08-16T19:28:59.059Z,25.80
2022-08-16T19:31:36.022Z,25.80
2022-08-16T19:34:04.463Z,25.80
2022-08-16T19:36:44.026Z,25.80
2022-08-16T19:39:16.286Z,25.80
2022-08-16T19:41:53.655Z,25.80
2022-08-16T19:44:22.021Z,25.80
2022-08-16T19:46:56.321Z,25.70
2022-08-16T19:49:23.375Z,25.70
2022-08-16T19:51:58.984Z,25.70
2022-08-16T19:54:26.046Z,25.70
2022-08-16T19:56:59.994Z,25.70
2022-08-16T19:59:40.565Z,25.70
2022-08-16T20:02:35.538Z,25.60
2022-08-16T20:05:11.039Z,25.60
2022-08-16T20:08:02.315Z,25.60
2022-08-16T20:10:38.047Z,25.60
2022-08-16T20:13:10.916Z,25.60
2022-08-16T20:15:45.061Z,25.60
2022-08-16T20:18:21.568Z,25.60
2022-08-16T20:21:00.003Z,25.60
2022-08-16T20:23:27.082Z,25.60
2022-08-16T20:26:03.031Z,25.50
2022-08-16T20:28:52.004Z,25.40
2022-08-16T20:31:24.104Z,25.30
2022-08-16T20:33:51.831Z,25.20
2022-08-16T20:36:18.902Z,25.10
2022-08-16T20:38:54.024Z,25.00
2022-08-16T20:41:21.052Z,24.90
2022-08-16T20:43:55.251Z,24.90
2022-08-16T20:46:22.574Z,24.80
2022-08-16T20:48:56.055Z,24.80
2022-08-16T20:51:23.072Z,24.80
2022-08-16T20:53:57.052Z,24.70
2022-08-16T20:56:31.073Z,24.70
2022-08-16T20:59:05.042Z,24.70
2022-08-16T21:01:45.993Z,24.60
2022-08-16T21:04:24.013Z,24.60
2022-08-16T21:07:11.042Z,24.60
2022-08-16T21:09:38.087Z,24.70
2022-08-16T21:12:09.154Z,24.70
2022-08-16T21:14:45.051Z,24.70
2022-08-16T21:17:20.102Z,24.70
2022-08-16T21:19:47.142Z,24.70
2022-08-16T21:22:18.441Z,24.60
2022-08-16T21:24:53.781Z,24.60
2022-08-16T21:27:28.013Z,24.50
2022-08-16T21:29:55.752Z,24.50
2022-08-16T21:32:35.098Z,24.40
2022-08-16T21:35:07.316Z,24.40
2022-08-16T21:37:41.058Z,24.40
2022-08-16T21:40:09.340Z,24.30
2022-08-16T21:42:44.002Z,24.30
2022-08-16T21:45:19.983Z,24.30
2022-08-16T21:47:46.982Z,24.20
2022-08-16T21:50:21.997Z,24.10
2022-08-16T21:52:49.085Z,24.10
2022-08-16T21:55:24.023Z,24.00
2022-08-16T21:57:50.943Z,23.90
2022-08-16T22:00:25.984Z,23.80
2022-08-16T22:02:54.522Z,23.80
2022-08-16T22:05:22.518Z,23.70
2022-08-16T22:08:00.850Z,23.70
2022-08-16T22:11:05.580Z,23.60
2022-08-16T22:13:31.283Z,23.50
2022-08-16T22:16:05.040Z,23.50
2022-08-16T22:18:31.981Z,23.40
2022-08-16T22:21:05.007Z,23.40
2022-08-16T22:23:32.163Z,23.40
2022-08-16T22:25:59.136Z,23.40
2022-08-16T22:28:33.026Z,23.40
2022-08-16T22:31:00.607Z,23.40
2022-08-16T22:33:34.998Z,23.40
2022-08-16T22:36:02.649Z,23.30
2022-08-16T22:38:54.215Z,23.20
2022-08-16T22:41:24.015Z,23.20
2022-08-16T22:43:50.932Z,23.20
2022-08-16T22:46:26.051Z,23.10
2022-08-16T22:48:53.079Z,23.10
2022-08-16T22:51:27.999Z,23.10
2022-08-16T22:53:55.514Z,23.10
2022-08-16T22:56:30.036Z,23.00
2022-08-16T22:58:56.967Z,23.00
2022-08-16T23:01:25.313Z,23.00
2022-08-16T23:04:02.001Z,23.00
2022-08-16T23:06:28.953Z,23.00
2022-08-16T23:09:09.020Z,22.90
2022-08-16T23:11:42.291Z,22.90
2022-08-16T23:14:16.068Z,22.90
2022-08-16T23:16:50.013Z,23.00
2022-08-16T23:19:17.129Z,22.90
2022-08-16T23:21:53.991Z,22.90
2022-08-16T23:24:21.002Z,22.90
2022-08-16T23:26:49.231Z,22.90
2022-08-16T23:29:26.484Z,22.90
2022-08-16T23:31:54.930Z,22.80
2022-08-16T23:34:29.055Z,22.70
2022-08-16T23:36:56.525Z,22.70
2022-08-16T23:39:30.132Z,22.70
2022-08-16T23:41:57.120Z,22.70
2022-08-16T23:44:55.096Z,22.70
2022-08-16T23:47:18.088Z,22.80
2022-08-16T23:50:00.913Z,22.70
2022-08-16T23:52:45.725Z,22.60
2022-08-16T23:55:30.043Z,22.60
2022-08-16T23:57:58.032Z,22.50
